sensor_id;sensor_type;location;lat;lon;timestamp;P1;durP1;ratioP1;P2;durP2;ratioP2
32872;SDS011;19224;52.462;16.898;2023-09-19T00:01:59;4.60;;;2.70;;
32872;SDS011;19224;52.462;16.898;2023-09-19T00:04:32;7.45;;;2.85;;
32872;SDS011;19224;52.462;16.898;2023-09-19T00:07:03;11.97;;;2.98;;
32872;SDS011;19224;52.462;16.898;2023-09-19T00:09:33;5.40;;;2.60;;
32872;SDS011;19224;52.462;16.898;2023-09-19T00:12:06;4.50;;;2.52;;
32872;SDS011;19224;52.462;16.898;2023-09-19T00:14:36;6.20;;;2.70;;
32872;SDS011;19224;52.462;16.898;2023-09-19T00:17:07;4.30;;;2.40;;
32872;SDS011;19224;52.462;16.898;2023-09-19T00:19:38;4.47;;;2.65;;
32872;SDS011;19224;52.462;16.898;2023-09-19T00:22:09;6.53;;;2.62;;
32872;SDS011;19224;52.462;16.898;2023-09-19T00:24:40;3.12;;;2.10;;
32872;SDS011;19224;52.462;16.898;2023-09-19T00:27:11;6.45;;;2.25;;
32872;SDS011;19224;52.462;16.898;2023-09-19T00:29:41;4.28;;;2.02;;
32872;SDS011;19224;52.462;16.898;2023-09-19T00:32:11;4.25;;;1.95;;
32872;SDS011;19224;52.462;16.898;2023-09-19T00:34:42;6.42;;;1.90;;
32872;SDS011;19224;52.462;16.898;2023-09-19T00:37:12;4.80;;;2.02;;
32872;SDS011;19224;52.462;16.898;2023-09-19T00:39:42;5.85;;;1.70;;
32872;SDS011;19224;52.462;16.898;2023-09-19T00:42:20;6.87;;;2.22;;
32872;SDS011;19224;52.462;16.898;2023-09-19T00:44:50;9.20;;;1.52;;
32872;SDS011;19224;52.462;16.898;2023-09-19T00:47:20;6.92;;;2.05;;
32872;SDS011;19224;52.462;16.898;2023-09-19T00:49:52;5.20;;;2.15;;
32872;SDS011;19224;52.462;16.898;2023-09-19T00:52:24;6.28;;;2.10;;
32872;SDS011;19224;52.462;16.898;2023-09-19T00:54:55;6.92;;;1.87;;
32872;SDS011;19224;52.462;16.898;2023-09-19T00:57:27;6.92;;;2.00;;
32872;SDS011;19224;52.462;16.898;2023-09-19T01:00:00;12.00;;;2.30;;
32872;SDS011;19224;52.462;16.898;2023-09-19T01:02:34;7.58;;;2.22;;
32872;SDS011;19224;52.462;16.898;2023-09-19T01:05:05;5.95;;;2.10;;
32872;SDS011;19224;52.462;16.898;2023-09-19T01:07:35;6.70;;;2.05;;
32872;SDS011;19224;52.462;16.898;2023-09-19T01:10:09;5.62;;;2.00;;
32872;SDS011;19224;52.462;16.898;2023-09-19T01:15:44;8.05;;;2.05;;
32872;SDS011;19224;52.462;16.898;2023-09-19T01:21:22;3.27;;;1.62;;
32872;SDS011;19224;52.462;16.898;2023-09-19T01:27:25;3.80;;;2.17;;
32872;SDS011;19224;52.462;16.898;2023-09-19T01:30:14;4.60;;;2.05;;
32872;SDS011;19224;52.462;16.898;2023-09-19T01:32:52;4.67;;;1.95;;
32872;SDS011;19224;52.462;16.898;2023-09-19T01:35:23;4.92;;;1.90;;
32872;SDS011;19224;52.462;16.898;2023-09-19T01:37:53;3.87;;;1.90;;
32872;SDS011;19224;52.462;16.898;2023-09-19T01:40:24;4.40;;;2.00;;
32872;SDS011;19224;52.462;16.898;2023-09-19T01:43:40;5.47;;;1.70;;
32872;SDS011;19224;52.462;16.898;2023-09-19T01:51:32;8.43;;;1.62;;
32872;SDS011;19224;52.462;16.898;2023-09-19T01:54:16;2.58;;;1.60;;
32872;SDS011;19224;52.462;16.898;2023-09-19T01:56:57;2.25;;;1.55;;
32872;SDS011;19224;52.462;16.898;2023-09-19T01:59:34;3.02;;;1.47;;
32872;SDS011;19224;52.462;16.898;2023-09-19T02:02:09;5.33;;;1.80;;
32872;SDS011;19224;52.462;16.898;2023-09-19T02:04:40;3.52;;;1.65;;
32872;SDS011;19224;52.462;16.898;2023-09-19T02:07:11;3.47;;;1.60;;
32872;SDS011;19224;52.462;16.898;2023-09-19T02:09:43;2.87;;;1.80;;
32872;SDS011;19224;52.462;16.898;2023-09-19T02:12:14;3.37;;;1.67;;
32872;SDS011;19224;52.462;16.898;2023-09-19T02:14:44;5.37;;;2.10;;
32872;SDS011;19224;52.462;16.898;2023-09-19T02:17:15;6.80;;;2.30;;
32872;SDS011;19224;52.462;16.898;2023-09-19T02:19:45;3.58;;;1.82;;
32872;SDS011;19224;52.462;16.898;2023-09-19T02:22:15;4.62;;;2.12;;
32872;SDS011;19224;52.462;16.898;2023-09-19T02:24:45;4.05;;;2.10;;
32872;SDS011;19224;52.462;16.898;2023-09-19T02:27:16;5.20;;;1.90;;
32872;SDS011;19224;52.462;16.898;2023-09-19T02:29:46;4.30;;;1.90;;
32872;SDS011;19224;52.462;16.898;2023-09-19T02:32:17;5.12;;;2.10;;
32872;SDS011;19224;52.462;16.898;2023-09-19T02:34:47;4.12;;;1.82;;
32872;SDS011;19224;52.462;16.898;2023-09-19T02:37:19;4.05;;;2.00;;
32872;SDS011;19224;52.462;16.898;2023-09-19T02:39:49;2.02;;;1.60;;
32872;SDS011;19224;52.462;16.898;2023-09-19T02:42:20;3.50;;;1.65;;
32872;SDS011;19224;52.462;16.898;2023-09-19T02:44:50;2.27;;;1.65;;
32872;SDS011;19224;52.462;16.898;2023-09-19T02:47:20;3.55;;;1.80;;
32872;SDS011;19224;52.462;16.898;2023-09-19T02:49:50;2.15;;;1.35;;
32872;SDS011;19224;52.462;16.898;2023-09-19T02:52:20;5.85;;;1.72;;
32872;SDS011;19224;52.462;16.898;2023-09-19T02:54:52;4.45;;;1.60;;
32872;SDS011;19224;52.462;16.898;2023-09-19T02:57:22;4.47;;;1.42;;
32872;SDS011;19224;52.462;16.898;2023-09-19T02:59:53;3.50;;;1.52;;
32872;SDS011;19224;52.462;16.898;2023-09-19T03:02:23;3.05;;;1.47;;
32872;SDS011;19224;52.462;16.898;2023-09-19T03:04:55;4.33;;;1.30;;
32872;SDS011;19224;52.462;16.898;2023-09-19T03:07:27;2.72;;;1.40;;
32872;SDS011;19224;52.462;16.898;2023-09-19T03:09:57;2.80;;;1.60;;
32872;SDS011;19224;52.462;16.898;2023-09-19T03:12:28;3.25;;;1.37;;
32872;SDS011;19224;52.462;16.898;2023-09-19T03:14:59;5.53;;;1.70;;
32872;SDS011;19224;52.462;16.898;2023-09-19T03:17:32;1.75;;;1.10;;
32872;SDS011;19224;52.462;16.898;2023-09-19T03:20:03;3.37;;;1.82;;
32872;SDS011;19224;52.462;16.898;2023-09-19T03:22:36;5.33;;;1.40;;
32872;SDS011;19224;52.462;16.898;2023-09-19T03:25:07;3.42;;;1.50;;
32872;SDS011;19224;52.462;16.898;2023-09-19T03:27:41;2.50;;;1.22;;
32872;SDS011;19224;52.462;16.898;2023-09-19T03:30:11;3.33;;;1.62;;
32872;SDS011;19224;52.462;16.898;2023-09-19T03:32:48;4.17;;;1.40;;
32872;SDS011;19224;52.462;16.898;2023-09-19T03:35:19;3.83;;;1.12;;
32872;SDS011;19224;52.462;16.898;2023-09-19T03:37:49;3.25;;;1.52;;
32872;SDS011;19224;52.462;16.898;2023-09-19T03:40:20;2.62;;;1.60;;
32872;SDS011;19224;52.462;16.898;2023-09-19T03:42:51;2.85;;;1.50;;
32872;SDS011;19224;52.462;16.898;2023-09-19T03:45:21;2.72;;;1.62;;
32872;SDS011;19224;52.462;16.898;2023-09-19T03:47:52;2.37;;;1.27;;
32872;SDS011;19224;52.462;16.898;2023-09-19T03:50:22;5.25;;;1.80;;
32872;SDS011;19224;52.462;16.898;2023-09-19T03:53:03;3.90;;;1.42;;
32872;SDS011;19224;52.462;16.898;2023-09-19T03:55:26;3.60;;;1.80;;
32872;SDS011;19224;52.462;16.898;2023-09-19T03:57:58;3.67;;;2.00;;
32872;SDS011;19224;52.462;16.898;2023-09-19T04:00:29;7.12;;;1.85;;
32872;SDS011;19224;52.462;16.898;2023-09-19T04:02:59;3.62;;;1.82;;
32872;SDS011;19224;52.462;16.898;2023-09-19T04:05:31;5.67;;;2.20;;
32872;SDS011;19224;52.462;16.898;2023-09-19T04:08:02;4.53;;;2.20;;
32872;SDS011;19224;52.462;16.898;2023-09-19T04:10:32;3.27;;;1.75;;
32872;SDS011;19224;52.462;16.898;2023-09-19T04:13:03;5.35;;;2.37;;
32872;SDS011;19224;52.462;16.898;2023-09-19T04:15:35;4.75;;;2.10;;
32872;SDS011;19224;52.462;16.898;2023-09-19T04:18:05;7.42;;;2.50;;
32872;SDS011;19224;52.462;16.898;2023-09-19T04:20:35;5.60;;;2.77;;
32872;SDS011;19224;52.462;16.898;2023-09-19T04:23:06;5.25;;;2.58;;
32872;SDS011;19224;52.462;16.898;2023-09-19T04:25:36;3.52;;;2.40;;
32872;SDS011;19224;52.462;16.898;2023-09-19T04:28:08;6.28;;;2.70;;
32872;SDS011;19224;52.462;16.898;2023-09-19T04:30:39;6.05;;;2.55;;
32872;SDS011;19224;52.462;16.898;2023-09-19T04:33:09;4.67;;;2.70;;
32872;SDS011;19224;52.462;16.898;2023-09-19T04:35:41;7.80;;;2.77;;
32872;SDS011;19224;52.462;16.898;2023-09-19T04:38:11;6.10;;;2.67;;
32872;SDS011;19224;52.462;16.898;2023-09-19T04:40:43;4.28;;;2.50;;
32872;SDS011;19224;52.462;16.898;2023-09-19T04:43:14;7.42;;;2.70;;
32872;SDS011;19224;52.462;16.898;2023-09-19T04:45:44;8.10;;;3.02;;
32872;SDS011;19224;52.462;16.898;2023-09-19T04:48:15;7.10;;;3.30;;
32872;SDS011;19224;52.462;16.898;2023-09-19T04:50:45;6.47;;;3.20;;
32872;SDS011;19224;52.462;16.898;2023-09-19T04:53:18;6.35;;;3.22;;
32872;SDS011;19224;52.462;16.898;2023-09-19T04:55:50;5.25;;;3.15;;
32872;SDS011;19224;52.462;16.898;2023-09-19T04:58:23;9.00;;;3.65;;
32872;SDS011;19224;52.462;16.898;2023-09-19T05:00:53;5.85;;;3.40;;
32872;SDS011;19224;52.462;16.898;2023-09-19T05:03:23;4.78;;;3.02;;
32872;SDS011;19224;52.462;16.898;2023-09-19T05:05:54;11.50;;;6.67;;
32872;SDS011;19224;52.462;16.898;2023-09-19T05:08:24;4.87;;;3.02;;
32872;SDS011;19224;52.462;16.898;2023-09-19T05:10:55;6.95;;;2.77;;
32872;SDS011;19224;52.462;16.898;2023-09-19T05:13:26;5.78;;;2.50;;
32872;SDS011;19224;52.462;16.898;2023-09-19T05:15:59;6.00;;;2.50;;
32872;SDS011;19224;52.462;16.898;2023-09-19T05:18:31;5.67;;;3.05;;
32872;SDS011;19224;52.462;16.898;2023-09-19T05:21:02;8.20;;;2.98;;
32872;SDS011;19224;52.462;16.898;2023-09-19T05:23:32;8.00;;;2.70;;
32872;SDS011;19224;52.462;16.898;2023-09-19T05:26:04;3.00;;;2.42;;
32872;SDS011;19224;52.462;16.898;2023-09-19T05:28:35;9.78;;;2.70;;
32872;SDS011;19224;52.462;16.898;2023-09-19T05:31:05;6.75;;;2.60;;
32872;SDS011;19224;52.462;16.898;2023-09-19T05:33:35;10.38;;;2.90;;
32872;SDS011;19224;52.462;16.898;2023-09-19T05:36:06;7.65;;;2.87;;
32872;SDS011;19224;52.462;16.898;2023-09-19T05:38:38;4.53;;;2.60;;
32872;SDS011;19224;52.462;16.898;2023-09-19T05:41:10;4.42;;;2.52;;
32872;SDS011;19224;52.462;16.898;2023-09-19T05:43:41;6.83;;;2.75;;
32872;SDS011;19224;52.462;16.898;2023-09-19T05:46:12;7.58;;;2.42;;
32872;SDS011;19224;52.462;16.898;2023-09-19T05:48:44;5.72;;;2.50;;
32872;SDS011;19224;52.462;16.898;2023-09-19T05:51:15;3.20;;;2.37;;
32872;SDS011;19224;52.462;16.898;2023-09-19T05:53:45;7.58;;;2.83;;
32872;SDS011;19224;52.462;16.898;2023-09-19T05:56:16;6.33;;;2.55;;
32872;SDS011;19224;52.462;16.898;2023-09-19T05:58:46;5.97;;;2.95;;
32872;SDS011;19224;52.462;16.898;2023-09-19T06:01:18;5.72;;;2.75;;
32872;SDS011;19224;52.462;16.898;2023-09-19T06:03:50;6.92;;;3.08;;
32872;SDS011;19224;52.462;16.898;2023-09-19T06:06:24;7.10;;;2.77;;
32872;SDS011;19224;52.462;16.898;2023-09-19T06:08:55;5.45;;;2.45;;
32872;SDS011;19224;52.462;16.898;2023-09-19T06:11:25;5.70;;;2.33;;
32872;SDS011;19224;52.462;16.898;2023-09-19T06:13:57;4.95;;;2.77;;
32872;SDS011;19224;52.462;16.898;2023-09-19T06:16:28;4.30;;;2.40;;
32872;SDS011;19224;52.462;16.898;2023-09-19T06:19:02;8.83;;;2.37;;
32872;SDS011;19224;52.462;16.898;2023-09-19T06:21:34;8.28;;;2.33;;
32872;SDS011;19224;52.462;16.898;2023-09-19T06:24:06;5.70;;;2.40;;
32872;SDS011;19224;52.462;16.898;2023-09-19T06:26:37;7.87;;;2.70;;
32872;SDS011;19224;52.462;16.898;2023-09-19T06:29:07;6.55;;;2.55;;
32872;SDS011;19224;52.462;16.898;2023-09-19T06:31:38;9.20;;;2.83;;
32872;SDS011;19224;52.462;16.898;2023-09-19T06:34:10;8.58;;;2.60;;
32872;SDS011;19224;52.462;16.898;2023-09-19T06:36:42;4.85;;;2.37;;
32872;SDS011;19224;52.462;16.898;2023-09-19T06:39:13;5.25;;;2.55;;
32872;SDS011;19224;52.462;16.898;2023-09-19T06:41:43;6.97;;;2.42;;
32872;SDS011;19224;52.462;16.898;2023-09-19T06:44:13;6.42;;;2.42;;
32872;SDS011;19224;52.462;16.898;2023-09-19T06:46:44;3.75;;;2.52;;
32872;SDS011;19224;52.462;16.898;2023-09-19T06:49:16;9.50;;;2.77;;
32872;SDS011;19224;52.462;16.898;2023-09-19T06:51:47;4.95;;;2.30;;
32872;SDS011;19224;52.462;16.898;2023-09-19T06:54:17;7.00;;;2.35;;
32872;SDS011;19224;52.462;16.898;2023-09-19T06:56:48;6.22;;;2.47;;
32872;SDS011;19224;52.462;16.898;2023-09-19T06:59:18;4.42;;;2.40;;
32872;SDS011;19224;52.462;16.898;2023-09-19T07:01:48;8.85;;;2.65;;
32872;SDS011;19224;52.462;16.898;2023-09-19T07:04:22;3.85;;;2.40;;
32872;SDS011;19224;52.462;16.898;2023-09-19T07:06:52;6.05;;;2.80;;
32872;SDS011;19224;52.462;16.898;2023-09-19T07:09:23;6.72;;;2.62;;
32872;SDS011;19224;52.462;16.898;2023-09-19T07:11:55;5.22;;;2.50;;
32872;SDS011;19224;52.462;16.898;2023-09-19T07:14:25;7.03;;;2.27;;
32872;SDS011;19224;52.462;16.898;2023-09-19T07:16:57;4.45;;;2.45;;
32872;SDS011;19224;52.462;16.898;2023-09-19T07:19:28;5.25;;;2.40;;
32872;SDS011;19224;52.462;16.898;2023-09-19T07:21:59;7.58;;;2.40;;
32872;SDS011;19224;52.462;16.898;2023-09-19T07:24:30;6.20;;;2.58;;
32872;SDS011;19224;52.462;16.898;2023-09-19T07:27:00;4.72;;;2.60;;
32872;SDS011;19224;52.462;16.898;2023-09-19T07:29:32;3.65;;;2.40;;
32872;SDS011;19224;52.462;16.898;2023-09-19T07:32:03;4.72;;;2.30;;
32872;SDS011;19224;52.462;16.898;2023-09-19T07:34:34;6.00;;;2.50;;
32872;SDS011;19224;52.462;16.898;2023-09-19T07:37:06;5.53;;;2.12;;
32872;SDS011;19224;52.462;16.898;2023-09-19T07:39:37;3.60;;;2.30;;
32872;SDS011;19224;52.462;16.898;2023-09-19T07:42:08;4.58;;;2.50;;
32872;SDS011;19224;52.462;16.898;2023-09-19T07:44:40;3.22;;;1.98;;
32872;SDS011;19224;52.462;16.898;2023-09-19T07:47:11;4.30;;;1.92;;
32872;SDS011;19224;52.462;16.898;2023-09-19T07:49:42;8.65;;;2.20;;
32872;SDS011;19224;52.462;16.898;2023-09-19T07:52:15;4.70;;;2.08;;
32872;SDS011;19224;52.462;16.898;2023-09-19T07:54:47;5.42;;;2.37;;
32872;SDS011;19224;52.462;16.898;2023-09-19T07:57:17;5.67;;;1.85;;
32872;SDS011;19224;52.462;16.898;2023-09-19T07:59:48;5.00;;;1.72;;
32872;SDS011;19224;52.462;16.898;2023-09-19T08:02:19;5.65;;;1.85;;
32872;SDS011;19224;52.462;16.898;2023-09-19T08:04:50;6.25;;;1.82;;
32872;SDS011;19224;52.462;16.898;2023-09-19T08:07:21;4.12;;;1.47;;
32872;SDS011;19224;52.462;16.898;2023-09-19T08:09:52;3.72;;;1.60;;
32872;SDS011;19224;52.462;16.898;2023-09-19T08:12:22;2.77;;;1.25;;
32872;SDS011;19224;52.462;16.898;2023-09-19T08:14:53;4.53;;;1.45;;
32872;SDS011;19224;52.462;16.898;2023-09-19T08:17:24;4.35;;;1.70;;
32872;SDS011;19224;52.462;16.898;2023-09-19T08:19:54;5.37;;;1.65;;
32872;SDS011;19224;52.462;16.898;2023-09-19T08:22:25;7.05;;;1.65;;
32872;SDS011;19224;52.462;16.898;2023-09-19T08:24:55;5.53;;;1.50;;
32872;SDS011;19224;52.462;16.898;2023-09-19T08:27:26;6.17;;;1.57;;
32872;SDS011;19224;52.462;16.898;2023-09-19T08:29:56;3.58;;;1.82;;
32872;SDS011;19224;52.462;16.898;2023-09-19T08:32:28;9.38;;;1.90;;
32872;SDS011;19224;52.462;16.898;2023-09-19T08:34:58;4.80;;;1.77;;
32872;SDS011;19224;52.462;16.898;2023-09-19T08:37:28;6.25;;;1.90;;
32872;SDS011;19224;52.462;16.898;2023-09-19T08:40:00;9.75;;;2.12;;
32872;SDS011;19224;52.462;16.898;2023-09-19T08:42:30;7.78;;;2.20;;
32872;SDS011;19224;52.462;16.898;2023-09-19T08:45:03;7.58;;;2.05;;
32872;SDS011;19224;52.462;16.898;2023-09-19T08:47:34;5.95;;;2.10;;
32872;SDS011;19224;52.462;16.898;2023-09-19T08:50:14;6.45;;;2.25;;
32872;SDS011;19224;52.462;16.898;2023-09-19T08:52:49;10.13;;;3.50;;
32872;SDS011;19224;52.462;16.898;2023-09-19T08:55:27;14.35;;;2.25;;
32872;SDS011;19224;52.462;16.898;2023-09-19T08:58:02;3.87;;;1.55;;
32872;SDS011;19224;52.462;16.898;2023-09-19T09:00:35;6.58;;;1.75;;
32872;SDS011;19224;52.462;16.898;2023-09-19T09:03:08;3.67;;;1.52;;
32872;SDS011;19224;52.462;16.898;2023-09-19T09:05:41;7.37;;;2.05;;
32872;SDS011;19224;52.462;16.898;2023-09-19T09:08:14;4.62;;;1.75;;
32872;SDS011;19224;52.462;16.898;2023-09-19T09:10:44;2.83;;;1.70;;
32872;SDS011;19224;52.462;16.898;2023-09-19T09:13:15;4.85;;;2.15;;
32872;SDS011;19224;52.462;16.898;2023-09-19T09:15:47;6.95;;;1.72;;
32872;SDS011;19224;52.462;16.898;2023-09-19T09:18:18;4.47;;;1.82;;
32872;SDS011;19224;52.462;16.898;2023-09-19T09:20:49;4.62;;;1.75;;
32872;SDS011;19224;52.462;16.898;2023-09-19T09:23:20;5.47;;;1.65;;
32872;SDS011;19224;52.462;16.898;2023-09-19T09:25:52;6.47;;;1.75;;
32872;SDS011;19224;52.462;16.898;2023-09-19T09:28:32;3.90;;;2.02;;
32872;SDS011;19224;52.462;16.898;2023-09-19T09:31:05;3.70;;;1.75;;
32872;SDS011;19224;52.462;16.898;2023-09-19T09:33:38;2.85;;;1.62;;
32872;SDS011;19224;52.462;16.898;2023-09-19T09:36:10;5.95;;;1.80;;
32872;SDS011;19224;52.462;16.898;2023-09-19T09:38:43;7.45;;;2.00;;
32872;SDS011;19224;52.462;16.898;2023-09-19T09:41:16;2.75;;;1.75;;
32872;SDS011;19224;52.462;16.898;2023-09-19T09:43:48;3.50;;;1.60;;
32872;SDS011;19224;52.462;16.898;2023-09-19T09:46:20;6.00;;;2.05;;
32872;SDS011;19224;52.462;16.898;2023-09-19T09:49:03;8.60;;;2.00;;
32872;SDS011;19224;52.462;16.898;2023-09-19T09:51:51;4.60;;;2.15;;
32872;SDS011;19224;52.462;16.898;2023-09-19T09:54:36;7.28;;;1.85;;
32872;SDS011;19224;52.462;16.898;2023-09-19T09:57:09;6.90;;;2.37;;
32872;SDS011;19224;52.462;16.898;2023-09-19T09:59:52;5.62;;;1.70;;
32872;SDS011;19224;52.462;16.898;2023-09-19T10:02:29;10.98;;;1.87;;
32872;SDS011;19224;52.462;16.898;2023-09-19T10:05:15;5.33;;;1.75;;
32872;SDS011;19224;52.462;16.898;2023-09-19T10:07:55;6.78;;;1.50;;
32872;SDS011;19224;52.462;16.898;2023-09-19T10:10:35;8.60;;;2.02;;
32872;SDS011;19224;52.462;16.898;2023-09-19T10:13:11;6.45;;;1.67;;
32872;SDS011;19224;52.462;16.898;2023-09-19T10:15:47;4.85;;;1.70;;
32872;SDS011;19224;52.462;16.898;2023-09-19T10:18:21;8.63;;;1.65;;
32872;SDS011;19224;52.462;16.898;2023-09-19T10:20:56;12.65;;;1.52;;
32872;SDS011;19224;52.462;16.898;2023-09-19T10:23:28;7.15;;;1.60;;
32872;SDS011;19224;52.462;16.898;2023-09-19T10:26:01;6.22;;;1.70;;
32872;SDS011;19224;52.462;16.898;2023-09-19T10:28:32;8.98;;;1.85;;
32872;SDS011;19224;52.462;16.898;2023-09-19T10:31:06;7.70;;;1.90;;
32872;SDS011;19224;52.462;16.898;2023-09-19T10:33:39;8.73;;;1.95;;
32872;SDS011;19224;52.462;16.898;2023-09-19T10:36:11;4.47;;;1.75;;
32872;SDS011;19224;52.462;16.898;2023-09-19T10:38:43;4.08;;;1.90;;
32872;SDS011;19224;52.462;16.898;2023-09-19T10:41:16;8.80;;;1.75;;
32872;SDS011;19224;52.462;16.898;2023-09-19T10:43:48;7.37;;;1.98;;
32872;SDS011;19224;52.462;16.898;2023-09-19T10:46:21;5.95;;;1.82;;
32872;SDS011;19224;52.462;16.898;2023-09-19T10:48:53;4.28;;;1.52;;
32872;SDS011;19224;52.462;16.898;2023-09-19T10:51:27;4.90;;;1.72;;
32872;SDS011;19224;52.462;16.898;2023-09-19T10:54:13;9.30;;;2.00;;
32872;SDS011;19224;52.462;16.898;2023-09-19T10:56:48;5.17;;;1.80;;
32872;SDS011;19224;52.462;16.898;2023-09-19T10:59:21;10.40;;;1.90;;
32872;SDS011;19224;52.462;16.898;2023-09-19T11:01:52;7.35;;;1.55;;
32872;SDS011;19224;52.462;16.898;2023-09-19T11:04:26;8.78;;;2.02;;
32872;SDS011;19224;52.462;16.898;2023-09-19T11:07:07;3.35;;;1.50;;
32872;SDS011;19224;52.462;16.898;2023-09-19T11:09:45;6.05;;;1.65;;
32872;SDS011;19224;52.462;16.898;2023-09-19T11:15:07;3.47;;;1.57;;
32872;SDS011;19224;52.462;16.898;2023-09-19T11:17:40;9.63;;;1.70;;
32872;SDS011;19224;52.462;16.898;2023-09-19T11:30:59;7.55;;;1.90;;
32872;SDS011;19224;52.462;16.898;2023-09-19T11:33:33;4.62;;;1.80;;
32872;SDS011;19224;52.462;16.898;2023-09-19T11:36:05;4.40;;;1.75;;
32872;SDS011;19224;52.462;16.898;2023-09-19T11:49:28;5.87;;;2.00;;
32872;SDS011;19224;52.462;16.898;2023-09-19T11:52:01;4.58;;;2.00;;
32872;SDS011;19224;52.462;16.898;2023-09-19T11:54:33;3.80;;;1.70;;
32872;SDS011;19224;52.462;16.898;2023-09-19T11:57:06;3.20;;;1.80;;
32872;SDS011;19224;52.462;16.898;2023-09-19T11:59:39;4.08;;;1.72;;
32872;SDS011;19224;52.462;16.898;2023-09-19T12:02:10;4.15;;;1.60;;
32872;SDS011;19224;52.462;16.898;2023-09-19T12:04:45;5.08;;;1.80;;
32872;SDS011;19224;52.462;16.898;2023-09-19T12:07:17;3.02;;;1.80;;
32872;SDS011;19224;52.462;16.898;2023-09-19T12:09:50;7.30;;;1.62;;
32872;SDS011;19224;52.462;16.898;2023-09-19T12:12:33;7.05;;;1.70;;
32872;SDS011;19224;52.462;16.898;2023-09-19T12:15:05;4.35;;;1.80;;
32872;SDS011;19224;52.462;16.898;2023-09-19T12:17:36;7.55;;;1.90;;
32872;SDS011;19224;52.462;16.898;2023-09-19T12:20:10;6.55;;;1.87;;
32872;SDS011;19224;52.462;16.898;2023-09-19T12:22:45;4.58;;;2.00;;
32872;SDS011;19224;52.462;16.898;2023-09-19T12:25:17;6.90;;;1.92;;
32872;SDS011;19224;52.462;16.898;2023-09-19T12:27:49;3.55;;;1.80;;
32872;SDS011;19224;52.462;16.898;2023-09-19T12:30:26;4.85;;;2.05;;
32872;SDS011;19224;52.462;16.898;2023-09-19T12:32:58;6.05;;;2.10;;
32872;SDS011;19224;52.462;16.898;2023-09-19T12:35:31;3.30;;;1.98;;
32872;SDS011;19224;52.462;16.898;2023-09-19T12:38:03;6.25;;;2.22;;
32872;SDS011;19224;52.462;16.898;2023-09-19T12:40:35;4.60;;;2.22;;
32872;SDS011;19224;52.462;16.898;2023-09-19T12:43:06;4.15;;;1.87;;
32872;SDS011;19224;52.462;16.898;2023-09-19T12:45:39;4.65;;;1.90;;
32872;SDS011;19224;52.462;16.898;2023-09-19T12:48:22;6.55;;;1.87;;
32872;SDS011;19224;52.462;16.898;2023-09-19T12:51:02;4.35;;;1.90;;
32872;SDS011;19224;52.462;16.898;2023-09-19T12:53:40;6.00;;;2.00;;
32872;SDS011;19224;52.462;16.898;2023-09-19T12:56:14;6.62;;;2.00;;
32872;SDS011;19224;52.462;16.898;2023-09-19T12:58:53;4.12;;;2.00;;
32872;SDS011;19224;52.462;16.898;2023-09-19T13:01:30;2.95;;;1.82;;
32872;SDS011;19224;52.462;16.898;2023-09-19T13:04:17;6.95;;;2.37;;
32872;SDS011;19224;52.462;16.898;2023-09-19T13:06:57;5.45;;;2.02;;
32872;SDS011;19224;52.462;16.898;2023-09-19T13:09:30;6.17;;;1.98;;
32872;SDS011;19224;52.462;16.898;2023-09-19T13:12:02;3.50;;;2.02;;
32872;SDS011;19224;52.462;16.898;2023-09-19T13:14:35;7.42;;;2.02;;
32872;SDS011;19224;52.462;16.898;2023-09-19T13:17:07;7.03;;;1.98;;
32872;SDS011;19224;52.462;16.898;2023-09-19T13:19:51;9.20;;;2.42;;
32872;SDS011;19224;52.462;16.898;2023-09-19T13:25:16;2.22;;;1.80;;
32872;SDS011;19224;52.462;16.898;2023-09-19T13:27:48;10.45;;;2.45;;
32872;SDS011;19224;52.462;16.898;2023-09-19T13:30:24;4.37;;;2.02;;
32872;SDS011;19224;52.462;16.898;2023-09-19T13:33:05;4.33;;;1.95;;
32872;SDS011;19224;52.462;16.898;2023-09-19T13:35:38;4.42;;;1.77;;
32872;SDS011;19224;52.462;16.898;2023-09-19T13:38:09;4.53;;;2.27;;
32872;SDS011;19224;52.462;16.898;2023-09-19T13:40:40;3.00;;;1.77;;
32872;SDS011;19224;52.462;16.898;2023-09-19T13:43:11;4.03;;;1.70;;
32872;SDS011;19224;52.462;16.898;2023-09-19T13:45:42;4.67;;;1.70;;
32872;SDS011;19224;52.462;16.898;2023-09-19T13:48:12;4.30;;;2.10;;
32872;SDS011;19224;52.462;16.898;2023-09-19T13:50:42;4.30;;;1.90;;
32872;SDS011;19224;52.462;16.898;2023-09-19T13:53:13;2.58;;;1.77;;
32872;SDS011;19224;52.462;16.898;2023-09-19T13:55:44;5.67;;;1.95;;
32872;SDS011;19224;52.462;16.898;2023-09-19T13:58:16;2.17;;;1.52;;
32872;SDS011;19224;52.462;16.898;2023-09-19T14:00:47;5.55;;;2.08;;
32872;SDS011;19224;52.462;16.898;2023-09-19T14:03:18;2.98;;;1.72;;
32872;SDS011;19224;52.462;16.898;2023-09-19T14:05:49;3.17;;;1.95;;
32872;SDS011;19224;52.462;16.898;2023-09-19T14:08:19;2.95;;;1.67;;
32872;SDS011;19224;52.462;16.898;2023-09-19T14:10:51;2.87;;;1.70;;
32872;SDS011;19224;52.462;16.898;2023-09-19T14:13:21;4.33;;;1.70;;
32872;SDS011;19224;52.462;16.898;2023-09-19T14:15:53;5.05;;;1.98;;
32872;SDS011;19224;52.462;16.898;2023-09-19T14:18:24;4.42;;;1.87;;
32872;SDS011;19224;52.462;16.898;2023-09-19T14:20:54;4.25;;;2.20;;
32872;SDS011;19224;52.462;16.898;2023-09-19T14:23:24;5.53;;;1.87;;
32872;SDS011;19224;52.462;16.898;2023-09-19T14:25:54;5.05;;;2.00;;
32872;SDS011;19224;52.462;16.898;2023-09-19T14:28:25;4.28;;;2.20;;
32872;SDS011;19224;52.462;16.898;2023-09-19T14:30:56;3.95;;;2.10;;
32872;SDS011;19224;52.462;16.898;2023-09-19T14:33:27;4.33;;;2.10;;
32872;SDS011;19224;52.462;16.898;2023-09-19T14:35:58;3.55;;;2.40;;
32872;SDS011;19224;52.462;16.898;2023-09-19T14:38:38;6.83;;;2.17;;
32872;SDS011;19224;52.462;16.898;2023-09-19T14:41:08;5.25;;;2.30;;
32872;SDS011;19224;52.462;16.898;2023-09-19T14:43:38;4.47;;;2.00;;
32872;SDS011;19224;52.462;16.898;2023-09-19T14:46:09;4.15;;;2.35;;
32872;SDS011;19224;52.462;16.898;2023-09-19T14:48:39;4.85;;;2.33;;
32872;SDS011;19224;52.462;16.898;2023-09-19T14:51:10;5.42;;;2.80;;
32872;SDS011;19224;52.462;16.898;2023-09-19T14:53:41;7.55;;;2.58;;
32872;SDS011;19224;52.462;16.898;2023-09-19T14:56:11;5.03;;;2.33;;
32872;SDS011;19224;52.462;16.898;2023-09-19T14:58:43;7.97;;;2.77;;
32872;SDS011;19224;52.462;16.898;2023-09-19T15:01:15;4.67;;;2.45;;
32872;SDS011;19224;52.462;16.898;2023-09-19T15:03:47;4.95;;;2.83;;
32872;SDS011;19224;52.462;16.898;2023-09-19T15:06:17;4.10;;;2.37;;
32872;SDS011;19224;52.462;16.898;2023-09-19T15:08:48;4.17;;;2.25;;
32872;SDS011;19224;52.462;16.898;2023-09-19T15:11:19;4.28;;;2.52;;
32872;SDS011;19224;52.462;16.898;2023-09-19T15:13:50;4.72;;;2.37;;
32872;SDS011;19224;52.462;16.898;2023-09-19T15:16:24;3.95;;;2.50;;
32872;SDS011;19224;52.462;16.898;2023-09-19T15:18:55;5.58;;;2.20;;
32872;SDS011;19224;52.462;16.898;2023-09-19T15:21:26;3.85;;;2.22;;
32872;SDS011;19224;52.462;16.898;2023-09-19T15:23:56;3.33;;;2.15;;
32872;SDS011;19224;52.462;16.898;2023-09-19T15:26:27;9.45;;;2.50;;
32872;SDS011;19224;52.462;16.898;2023-09-19T15:28:58;5.75;;;2.27;;
32872;SDS011;19224;52.462;16.898;2023-09-19T15:31:28;5.17;;;2.20;;
32872;SDS011;19224;52.462;16.898;2023-09-19T15:34:00;5.28;;;2.47;;
32872;SDS011;19224;52.462;16.898;2023-09-19T15:36:31;4.00;;;2.12;;
32872;SDS011;19224;52.462;16.898;2023-09-19T15:39:02;7.60;;;2.33;;
32872;SDS011;19224;52.462;16.898;2023-09-19T15:41:40;5.80;;;2.30;;
32872;SDS011;19224;52.462;16.898;2023-09-19T15:44:13;4.00;;;2.02;;
32872;SDS011;19224;52.462;16.898;2023-09-19T15:46:48;6.30;;;2.20;;